• Join FlightAware (Why Join?)
  • Login
  • US Flag 
Trick or treat! (Boo!!) 
11:16AM EDT


 

Airport Tracker/Info


-or-


 

Live Flight TrackerFlight Track Log ✈ SWA641 ✈ 25-Apr-2013 ✈ KSTL - KPHL

Flight Track Log - Related Links

Times and Time Zones

All times are in EDT time to prevent confusion due to time zone crossing. See the SWA641 flight status page for this flight to view local times or setup timezone preferences in your user account.

Time Position Orientation Groundspeed Altitude Reporting Facility
EDT Latitude Longitude Course Direction KTS MPH feet Rate Location/Type
12:49PM 38.7472 -90.3203 332° Northwest 140 161 1,500  Level FAA TRACON SMA TRACON (SMA)
12:49PM 38.7586 -90.3281 332° Northwest 154 177 1,900 1,440 Climbing FAA TRACON SMA TRACON (SMA)
12:49PM 38.7772 -90.3367 340° North 183 211 2,500 2,220 Climbing FAA TRACON SMA TRACON (SMA)
12:50PM 38.7939 -90.3450 339° North 203 234 3,400 3,120 Climbing FAA TRACON SMA TRACON (SMA)
12:50PM 38.8164 -90.3483 353° North 220 253 4,600 2,880 Climbing FAA TRACON SMA TRACON (SMA)
12:50PM 38.8317 -90.3314 41° Northeast 241 277 5,300 2,160 Climbing FAA TRACON SMA TRACON (SMA)
12:51PM 38.8328 -90.2736 89° East 273 314 6,800 2,040 Climbing FAA TRACON SMA TRACON (SMA)
12:51PM 38.8308 -90.2322 93° East 297 342 7,400 2,580 Climbing FAA TRACON SMA TRACON (SMA)
12:52PM 38.8300 -90.1981 92° East 314 361 8,500 3,180 Climbing FAA TRACON SMA TRACON (SMA)
12:52PM 38.8275 -90.1628 95° East 320 368 9,500 3,060 Climbing FAA TRACON SMA TRACON (SMA)
12:52PM 38.8247 -90.1183 95° East 326 375 10,600 2,340 Climbing FAA TRACON SMA TRACON (SMA)
12:53PM 38.8219 -90.0806 95° East 341 392 11,100 2,220 Climbing FAA TRACON SMA TRACON (SMA)
12:53PM 38.8208 -90.0411 92° East 356 410 12,100 3,300 Climbing FAA TRACON SMA TRACON (SMA)
12:53PM 38.8181 -89.9908 94° East 368 423 13,300 3,360 Climbing FAA TRACON SMA TRACON (SMA)
12:54PM 38.8158 -89.9497 94° East 375 432 14,300 2,820 Climbing FAA TRACON SMA TRACON (SMA)
12:54PM 38.8128 -89.9075 95° East 384 442 15,200 3,180 Climbing FAA TRACON SMA TRACON (SMA)
12:54PM 38.8103 -89.8539 93° East 392 451 16,500 3,420 Climbing FAA TRACON SMA TRACON (SMA)
12:55PM 38.8078 -89.8103 94° East 398 458 17,500 2,700 Climbing FAA TRACON SMA TRACON (SMA)
12:55PM 38.8036 -89.7100 93° East 410 472 19,200 2,580 Climbing FAA TRACON SMA TRACON (SMA)
12:56PM 38.8014 -89.6644 94° East 417 480 20,100 2,460 Climbing FAA TRACON SMA TRACON (SMA)
12:56PM 38.7992 -89.6181 94° East 423 487 20,900 2,700 Climbing FAA TRACON SMA TRACON (SMA)
12:56PM 38.7961 -89.5589 94° East 432 497 21,900 2,580 Climbing FAA TRACON SMA TRACON (SMA)
12:57PM 38.7933 -89.5108 94° East 438 504 22,600 2,100 Climbing FAA TRACON SMA TRACON (SMA)
12:57PM 38.7919 -89.4622 92° East 443 510 23,300 2,340 Climbing FAA TRACON SMA TRACON (SMA)
12:57PM 38.7975 -89.4014 83° East 449 517 24,200 2,460 Climbing FAA TRACON SMA TRACON (SMA)
12:58PM 38.8006 -89.3522 85° East 452 520 24,900 2,100 Climbing FAA TRACON SMA TRACON (SMA)
12:58PM 38.8094 -89.3028 77° East 457 526 25,600 2,040 Climbing FAA TRACON SMA TRACON (SMA)
12:58PM 38.8175 -89.2400 81° East 466 536 26,300 1,920 Climbing FAA TRACON SMA TRACON (SMA)
12:59PM 38.8264 -89.1883 78° East 473 544 26,900 1,920 Climbing FAA TRACON SMA TRACON (SMA)
12:59PM 38.8331 -89.1367 81° East 478 550 27,600 2,100 Climbing FAA TRACON SMA TRACON (SMA)
12:59PM 38.8411 -89.0711 81° East 486 559 28,300 1,800 Climbing FAA TRACON SMA TRACON (SMA)
01:00PM 38.8606 -88.9700 76° East 491 565 30,000 1,620 Climbing Kansas City Center
01:01PM 38.8853 -88.7897 80° East 512 589 31,700 1,560 Climbing Kansas City Center
01:02PM 38.9106 -88.5922 81° East 519 597 33,300 1,680 Climbing Kansas City Center
01:03PM 38.9403 -88.4122 78° East 514 592 35,100 1,680 Climbing Kansas City Center
01:04PM 38.9775 -88.2781 70° East 506 582 36,400 1,020 Climbing Indianapolis Center
01:05PM 39.0247 -88.1061 70° East 507 583 37,000 720 Climbing Indianapolis Center
01:06PM 39.0736 -87.9319 70° East 512 589 37,900 480 Climbing Indianapolis Center
01:07PM 39.1214 -87.7556 71° East 517 595 38,000 480 Climbing Indianapolis Center
01:08PM 39.1769 -87.5536 70° East 520 598 39,000 480 Climbing Indianapolis Center
01:09PM 39.2258 -87.3775 70° East 521 600 39,000  Level Indianapolis Center
01:10PM 39.2731 -87.2011 71° East 520 598 39,000  Level Indianapolis Center
01:11PM 39.3300 -87.0311 67° East 514 592 39,000  Level Indianapolis Center
01:12PM 39.3869 -86.8619 66° East 511 588 39,000  Level Indianapolis Center
01:13PM 39.4544 -86.6639 66° East 513 590 39,000  Level Indianapolis Center
01:14PM 39.5103 -86.4956 67° East 511 588 39,000  Level Indianapolis Center
01:16PM 39.5650 -86.3275 67° East 511 588 39,000  Level Indianapolis Center
01:17PM 39.6194 -86.1611 67° East 510 587 39,000  Level Indianapolis Center
01:18PM 39.6747 -85.9942 67° East 510 587 39,000  Level Indianapolis Center
01:19PM 39.7389 -85.7967 67° East 509 586 39,000  Level Indianapolis Center
01:20PM 39.7939 -85.6267 67° East 509 586 39,000  Level Indianapolis Center
01:21PM 39.8489 -85.4558 67° East 509 586 39,000  Level Indianapolis Center
01:22PM 39.9031 -85.2828 68° East 513 590 39,000  Level Indianapolis Center
01:23PM 39.9581 -85.1092 67° East 516 594 39,000  Level Indianapolis Center
01:24PM 40.0117 -84.9353 68° East 516 594 39,000  Level Indianapolis Center
01:25PM 40.0700 -84.7481 68° East 514 592 39,000  Level Indianapolis Center
01:26PM 40.1250 -84.5742 67° East 513 590 39,000  Level Indianapolis Center
01:27PM 40.1811 -84.3981 67° East 518 596 39,000  Level Indianapolis Center
01:28PM 40.2328 -84.2217 69° East 515 593 39,000  Level Indianapolis Center
01:29PM 40.2828 -84.0444 70° East 513 590 39,000  Level Indianapolis Center
01:30PM 40.2925 -83.8197 87° East 523 602 39,000  Level Indianapolis Center
01:31PM 40.2975 -83.6300 88° East 516 594 39,000  Level Indianapolis Center
01:32PM 40.3025 -83.4394 88° East 517 595 39,000  Level Indianapolis Center
01:33PM 40.3064 -83.2508 88° East 512 589 39,000  Level Indianapolis Center
01:34PM 40.3108 -83.0608 88° East 514 592 39,000  Level Indianapolis Center
01:35PM 40.3139 -82.8714 89° East 515 593 39,000  Level Indianapolis Center
01:36PM 40.3175 -82.6661 89° East 516 594 39,000  Level Indianapolis Center
01:37PM 40.3208 -82.4781 89° East 515 593 39,000  Level Indianapolis Center
01:38PM 40.3242 -82.2875 89° East 520 598 39,000  Level Indianapolis Center
01:39PM 40.3267 -82.0969 89° East 521 600 39,000  Level Indianapolis Center
01:40PM 40.3275 -81.9072 90° East 519 597 39,000  Level Indianapolis Center
01:41PM 40.3292 -81.7167 89° East 520 598 39,000  Level Indianapolis Center
01:42PM 40.3294 -81.5961 90° East 512 589 39,000  Level Cleveland Center
01:43PM 40.3311 -81.3892 89° East 512 589 39,000  Level Cleveland Center
01:44PM 40.3344 -81.2014 89° East 512 589 39,000  Level Cleveland Center
01:45PM 40.3353 -81.0161 90° East 512 589 39,000  Level Cleveland Center
01:46PM 40.3358 -80.8283 90° East 512 589 39,000  Level Cleveland Center
01:47PM 40.3361 -80.6375 90° East 512 589 39,000  Level Cleveland Center
01:48PM 40.3361 -80.4497 90° East 512 589 39,000  Level Cleveland Center
01:49PM 40.3314 -80.2861 92° East 512 589 39,000  Level Cleveland Center
01:50PM 40.3308 -80.0983 90° East 512 589 39,000  Level Cleveland Center
01:51PM 40.3300 -79.9050 90° East 519 597 39,000  Level Cleveland Center
01:52PM 40.3286 -79.7169 90° East 519 597 39,000  Level Cleveland Center
01:53PM 40.3269 -79.5319 91° East 514 592 39,000  Level Cleveland Center
01:54PM 40.3253 -79.3414 91° East 514 592 39,000  Level Cleveland Center
01:55PM 40.3206 -79.1344 92° East 514 592 39,000 -1,140 Level Cleveland Center
01:56PM 40.3181 -78.9467 91° East 514 592 36,800 -2,400 Descending Cleveland Center
01:57PM 40.3153 -78.7586 91° East 514 592 34,200 -2,580 Descending Cleveland Center
01:58PM 40.3142 -78.5708 90° East 514 592 31,700 -2,160 Descending Cleveland Center
01:59PM 40.3150 -78.3883 90° East 509 586 29,900 -1,920 Descending Cleveland Center
02:01PM 40.3144 -78.1158 90° East 483 556 26,700 -1,860 Descending New York Center
02:02PM 40.3100 -77.9519 92° East 465 535 25,000 -960 Descending New York Center
02:03PM 40.3108 -77.7967 90° East 443 510 24,800 -480 Descending New York Center
02:04PM 40.3097 -77.6389 90° East 436 502 24,100 -960 Descending New York Center
02:05PM 40.3081 -77.4889 91° East 425 489 22,900 -1,500 Descending New York Center
02:06PM 40.3058 -77.3389 91° East 415 478 21,100 -1,740 Descending New York Center
02:07PM 40.3014 -77.1942 92° East 405 466 19,400 -1,620 Descending New York Center
02:08PM 40.2964 -77.0547 93° East 392 451 18,000 -720 Descending New York Center
02:09PM 40.2661 -76.9161 106° East 382 440 18,000 -60 Level New York Center
02:10PM 40.2319 -76.7689 107° East 411 473 17,900 -420 Descending New York Center
02:11PM 40.2011 -76.6383 107° East 417 480 17,200 -960 Descending New York Center
02:12PM 40.1650 -76.4806 107° East 412 474 16,100 -1,140 Descending New York Center
02:13PM 40.1306 -76.3356 107° East 403 464 14,900 -1,560 Descending FAA TRACON SMA TRACON (SMA)
02:13PM 40.1194 -76.2819 105° East 400 460 14,000 -2,400 Descending FAA TRACON SMA TRACON (SMA)
02:13PM 40.1144 -76.2389 99° East 390 449 13,300 -1,980 Descending FAA TRACON SMA TRACON (SMA)
02:14PM 40.1136 -76.1944 91° East 396 456 12,700 -2,280 Descending FAA TRACON SMA TRACON (SMA)
02:14PM 40.1094 -76.1414 96° East 386 444 11,800 -2,400 Descending FAA TRACON SMA TRACON (SMA)
02:14PM 40.1075 -76.0989 93° East 383 441 11,100 -1,620 Descending FAA TRACON SMA TRACON (SMA)
02:15PM 40.1036 -76.0575 97° East 376 433 10,700 -840 Descending FAA TRACON SMA TRACON (SMA)
02:15PM 40.0975 -75.9700 95° East 317 365 10,300 -1,020 Descending FAA TRACON SMA TRACON (SMA)
02:17PM 40.0833 -75.7833 96° East 300 345 8,300 -1,080 Descending Philadelphia TRACON
02:18PM 40.0781 -75.7272 97° East 291 335 7,900 -840 Descending New York Center
02:19PM 40.0742 -75.6239 93° East 283 326 7,000 -1,020 Descending New York Center
02:20PM 40.0697 -75.5258 93° East 273 314 6,000 -540 Descending New York Center
02:21PM 40.0633 -75.4278 95° East 273 314 6,000  Level New York Center
02:22PM 40.0586 -75.3325 94° East 273 314 6,000  Level New York Center
02:22PM 40.0667 -75.2833 78° East 268 308 6,000  Level Philadelphia TRACON
02:23PM 40.0333 -75.2000 118° Southeast 240 276 6,000  Level Philadelphia TRACON
02:24PM 40.0167 -75.1167 105° East 218 251 6,000 -420 Level Philadelphia TRACON
02:25PM 40.0000 -75.0333 105° East 210 242 5,200 -840 Descending Philadelphia TRACON
02:26PM 39.9833 -74.9833 113° Southeast 198 228 4,400 -660 Descending Philadelphia TRACON
02:27PM 39.9333 -75.0000 194° South 191 220 3,900 -900 Descending Philadelphia TRACON
02:28PM 39.9000 -75.0667 237° Southwest 185 213 2,700 -1,200 Descending Philadelphia TRACON
02:29PM 39.9000 -75.1167 270° West 184 212 1,600 -960 Descending Philadelphia TRACON
02:30PM 39.8833 -75.1833 252° West 131 151 800 -840 Descending Philadelphia TRACON
02:32PM 39.8667 -75.2333 247° West  Level FlightAware Approximate
02:39PM 39.8722 -75.2409 247° West  Level Estimated